createdAt,value
2023-03-16T00:02:10.736Z,60.93
2023-03-16T00:04:38.204Z,61.08
2023-03-16T00:07:10.416Z,61.72
2023-03-16T00:09:41.345Z,61.68
2023-03-16T00:12:15.805Z,61.64
2023-03-16T00:14:44.793Z,61.36
2023-03-16T00:17:18.965Z,61.22
2023-03-16T00:19:57.215Z,61.75
2023-03-16T00:22:29.681Z,60.91
2023-03-16T00:24:57.207Z,60.91
2023-03-16T00:27:26.367Z,61.45
2023-03-16T00:29:57.249Z,61.10
2023-03-16T00:32:29.504Z,61.00
2023-03-16T00:34:56.769Z,61.39
2023-03-16T00:37:25.488Z,61.46
2023-03-16T00:39:56.361Z,61.26
2023-03-16T00:42:27.532Z,60.79
2023-03-16T00:44:58.847Z,61.07
2023-03-16T00:47:28.566Z,60.96
2023-03-16T00:49:55.835Z,60.64
2023-03-16T00:52:23.687Z,61.34
2023-03-16T00:54:53.009Z,60.76
2023-03-16T00:57:22.056Z,61.29
2023-03-16T00:59:49.309Z,61.05
2023-03-16T01:02:19.374Z,61.07
2023-03-16T01:04:46.178Z,61.51
2023-03-16T01:07:15.085Z,61.07
2023-03-16T01:09:44.485Z,61.21
2023-03-16T01:12:17.958Z,61.44
2023-03-16T01:14:48.163Z,60.96
2023-03-16T01:17:17.579Z,61.04
2023-03-16T01:19:45.033Z,61.79
2023-03-16T01:22:12.150Z,62.35
2023-03-16T01:24:39.886Z,62.28
2023-03-16T01:27:08.011Z,61.93
2023-03-16T01:29:35.910Z,61.90
2023-03-16T01:32:04.385Z,62.19
2023-03-16T01:34:32.028Z,61.89
2023-03-16T01:36:59.879Z,61.91
2023-03-16T01:39:58.950Z,61.67
2023-03-16T01:42:25.784Z,61.74
2023-03-16T01:44:55.218Z,62.22
2023-03-16T01:47:24.133Z,61.88
2023-03-16T01:49:55.065Z,61.21
2023-03-16T01:52:29.736Z,61.44
2023-03-16T01:55:13.853Z,62.04
2023-03-16T01:57:45.015Z,61.38
2023-03-16T02:00:23.921Z,62.01
2023-03-16T02:03:10.595Z,62.07
2023-03-16T02:05:56.532Z,61.62
2023-03-16T02:08:25.212Z,61.51
2023-03-16T02:10:54.845Z,61.39
2023-03-16T02:13:29.541Z,61.52
2023-03-16T02:15:56.422Z,61.89
2023-03-16T02:18:23.305Z,61.48
2023-03-16T02:21:33.259Z,61.58
2023-03-16T02:24:04.631Z,62.01
2023-03-16T02:26:49.308Z,61.61
2023-03-16T02:29:30.157Z,61.17
2023-03-16T02:32:06.421Z,61.21
2023-03-16T02:34:33.610Z,61.32
2023-03-16T02:37:01.187Z,61.26
2023-03-16T02:39:29.895Z,61.75
2023-03-16T02:41:57.117Z,61.70
2023-03-16T02:44:29.169Z,61.48
2023-03-16T02:47:04.500Z,61.61
2023-03-16T02:49:36.769Z,61.57
2023-03-16T02:52:12.325Z,61.89
2023-03-16T02:54:57.320Z,62.02
2023-03-16T02:57:31.904Z,62.32
2023-03-16T03:00:21.890Z,62.47
2023-03-16T03:02:57.426Z,62.22
2023-03-16T03:05:37.343Z,62.13
2023-03-16T03:08:52.321Z,61.79
2023-03-16T03:11:05.590Z,62.42
2023-03-16T03:13:32.755Z,62.22
2023-03-16T03:16:08.875Z,62.28
2023-03-16T03:18:44.442Z,62.37
2023-03-16T03:21:20.648Z,62.12
2023-03-16T03:23:48.017Z,61.53
2023-03-16T03:26:20.377Z,61.60
2023-03-16T03:28:49.720Z,61.94
2023-03-16T03:31:21.472Z,61.94
2023-03-16T03:33:54.073Z,61.98
2023-03-16T03:36:22.457Z,62.55
2023-03-16T03:38:55.174Z,62.61
2023-03-16T03:41:24.722Z,62.76
2023-03-16T03:43:53.539Z,62.69
2023-03-16T03:46:21.688Z,62.17
2023-03-16T03:48:48.956Z,62.87
2023-03-16T03:51:16.131Z,62.83
2023-03-16T03:53:55.231Z,63.10
2023-03-16T03:56:40.887Z,62.77
2023-03-16T03:59:12.625Z,62.92
2023-03-16T04:02:15.236Z,62.70
2023-03-16T04:04:50.582Z,63.36
2023-03-16T04:07:18.395Z,63.06
2023-03-16T04:09:46.953Z,63.38
2023-03-16T04:12:24.602Z,63.17
2023-03-16T04:14:52.368Z,63.31
2023-03-16T04:17:21.004Z,63.19
2023-03-16T04:19:49.794Z,63.52
2023-03-16T04:22:17.779Z,63.71
2023-03-16T04:24:49.093Z,62.98
2023-03-16T04:30:00.728Z,63.28
2023-03-16T04:32:32.103Z,62.82
2023-03-16T04:35:06.428Z,63.59
2023-03-16T04:37:55.503Z,62.96
2023-03-16T04:40:30.734Z,63.37
2023-03-16T04:43:13.912Z,63.61
2023-03-16T04:45:45.655Z,63.51
2023-03-16T04:48:16.031Z,63.58
2023-03-16T04:51:06.565Z,63.81
2023-03-16T04:53:44.867Z,64.89
2023-03-16T04:56:32.683Z,64.78
2023-03-16T04:59:04.438Z,64.62
2023-03-16T05:01:43.863Z,64.59
2023-03-16T05:04:18.892Z,64.46
2023-03-16T05:06:54.058Z,64.89
2023-03-16T05:09:28.180Z,65.02
2023-03-16T05:11:56.165Z,64.99
2023-03-16T05:14:27.686Z,64.57
2023-03-16T05:17:21.065Z,64.79
2023-03-16T05:19:50.003Z,65.42
2023-03-16T05:22:31.742Z,65.51
2023-03-16T05:25:17.118Z,65.33
2023-03-16T05:28:00.160Z,65.67
2023-03-16T05:30:46.531Z,65.47
2023-03-16T05:33:41.226Z,65.49
2023-03-16T05:36:13.220Z,65.74
2023-03-16T05:38:42.804Z,65.58
2023-03-16T05:41:15.325Z,65.00
2023-03-16T05:44:12.369Z,65.55
2023-03-16T05:47:05.617Z,65.04
2023-03-16T05:49:36.924Z,64.91
2023-03-16T05:52:08.670Z,64.80
2023-03-16T05:54:45.374Z,64.77
2023-03-16T05:57:12.583Z,64.83
2023-03-16T05:59:43.264Z,64.62
2023-03-16T06:02:11.888Z,64.41
2023-03-16T06:04:41.594Z,64.07
2023-03-16T06:07:08.939Z,63.90
2023-03-16T06:09:41.369Z,64.04
2023-03-16T06:12:14.441Z,64.12
2023-03-16T06:14:42.316Z,63.56
2023-03-16T06:17:10.887Z,63.73
2023-03-16T06:19:40.397Z,64.08
2023-03-16T06:22:11.068Z,63.87
2023-03-16T06:24:39.289Z,62.95
2023-03-16T06:27:09.477Z,62.56
2023-03-16T06:29:50.169Z,62.20
2023-03-16T06:32:17.852Z,61.88
2023-03-16T06:34:48.361Z,61.87
2023-03-16T06:37:16.051Z,61.09
2023-03-16T06:39:45.064Z,60.70
2023-03-16T06:42:12.620Z,60.53
2023-03-16T06:44:40.254Z,61.06
2023-03-16T06:47:10.564Z,60.38
2023-03-16T06:49:38.421Z,59.68
2023-03-16T06:52:18.613Z,59.89
2023-03-16T06:54:46.653Z,59.54
2023-03-16T06:57:15.408Z,59.96
2023-03-16T06:59:52.870Z,59.27
2023-03-16T07:02:26.681Z,59.29
2023-03-16T07:04:56.956Z,59.43
2023-03-16T07:07:25.080Z,58.62
2023-03-16T07:09:57.011Z,59.35
2023-03-16T07:12:24.816Z,58.54
2023-03-16T07:14:54.223Z,58.29
2023-03-16T07:17:25.535Z,58.17
2023-03-16T07:19:52.956Z,58.42
2023-03-16T07:22:22.311Z,57.81
2023-03-16T07:24:57.453Z,58.04
2023-03-16T07:27:29.686Z,58.18
2023-03-16T07:29:57.959Z,56.44
2023-03-16T07:32:25.073Z,56.75
2023-03-16T07:34:53.391Z,57.13
2023-03-16T07:37:25.490Z,57.29
2023-03-16T07:39:55.339Z,56.53
2023-03-16T07:42:25.212Z,56.60
2023-03-16T07:45:10.345Z,56.87
2023-03-16T07:47:42.331Z,55.76
2023-03-16T07:50:26.064Z,55.64
2023-03-16T07:52:55.122Z,55.46
2023-03-16T07:55:22.095Z,55.94
2023-03-16T07:57:53.185Z,55.65
2023-03-16T08:00:33.659Z,55.53
2023-03-16T08:03:02.344Z,55.29
2023-03-16T08:05:35.366Z,55.45
2023-03-16T08:08:09.892Z,54.89
2023-03-16T08:10:38.444Z,55.10
2023-03-16T08:13:17.217Z,54.78
2023-03-16T08:15:49.787Z,54.24
2023-03-16T08:18:26.786Z,54.21
2023-03-16T08:20:54.950Z,53.91
2023-03-16T08:23:24.278Z,54.34
2023-03-16T08:26:01.183Z,53.48
2023-03-16T08:28:28.585Z,52.81
2023-03-16T08:30:58.534Z,52.58
2023-03-16T08:33:38.687Z,53.05
2023-03-16T08:36:11.873Z,52.72
2023-03-16T08:38:45.365Z,51.81
2023-03-16T08:41:17.644Z,51.06
2023-03-16T08:43:52.287Z,49.74
2023-03-16T08:46:25.462Z,49.09
2023-03-16T08:48:57.656Z,47.70
2023-03-16T08:51:29.632Z,46.65
2023-03-16T08:53:57.108Z,46.02
2023-03-16T08:56:24.485Z,46.55
2023-03-16T08:58:52.170Z,46.61
2023-03-16T09:01:19.807Z,46.42
2023-03-16T09:03:47.719Z,45.99
2023-03-16T09:06:17.275Z,45.61
2023-03-16T09:08:48.170Z,44.51
2023-03-16T09:11:17.937Z,44.65
2023-03-16T09:13:45.062Z,44.78
2023-03-16T09:16:13.754Z,45.00
2023-03-16T09:18:51.316Z,45.20
2023-03-16T09:21:18.586Z,44.16
2023-03-16T09:23:45.757Z,43.64
2023-03-16T09:26:13.528Z,43.71
2023-03-16T09:28:42.295Z,44.01
2023-03-16T09:31:17.338Z,42.75
2023-03-16T09:33:44.792Z,43.27
2023-03-16T09:36:12.109Z,43.32
2023-03-16T09:38:39.883Z,42.95
2023-03-16T09:41:27.658Z,41.56
2023-03-16T09:44:06.103Z,40.90
2023-03-16T09:46:43.801Z,39.06
2023-03-16T09:49:16.415Z,39.72
2023-03-16T09:52:00.694Z,38.85
2023-03-16T09:54:50.860Z,36.42
2023-03-16T09:57:30.833Z,33.25
2023-03-16T10:00:03.983Z,30.64
2023-03-16T10:02:48.757Z,27.31
2023-03-16T10:05:20.946Z,26.10
2023-03-16T10:08:05.677Z,23.30
2023-03-16T10:11:02.867Z,19.60
2023-03-16T10:13:37.847Z,19.38
2023-03-16T10:16:17.502Z,20.91
2023-03-16T10:18:46.640Z,19.73
2023-03-16T10:21:20.054Z,19.16
2023-03-16T10:23:49.337Z,18.87
2023-03-16T10:26:23.153Z,17.27
2023-03-16T10:28:50.743Z,17.86
2023-03-16T10:31:21.468Z,17.97
2023-03-16T10:33:53.991Z,16.82
2023-03-16T10:36:38.720Z,16.29
2023-03-16T10:39:19.717Z,13.61
2023-03-16T10:41:58.671Z,13.62
2023-03-16T10:44:28.763Z,14.48
2023-03-16T10:47:08.410Z,15.90
2023-03-16T10:49:36.193Z,14.25
2023-03-16T10:52:14.686Z,14.47
2023-03-16T10:54:49.046Z,14.36
2023-03-16T10:57:33.983Z,16.44
2023-03-16T11:00:16.912Z,16.81
2023-03-16T11:02:44.184Z,18.53
2023-03-16T11:05:34.184Z,19.54
2023-03-16T11:08:33.929Z,20.90
2023-03-16T11:11:08.858Z,19.93
2023-03-16T11:13:38.871Z,22.25
2023-03-16T11:16:24.117Z,23.05
2023-03-16T11:19:06.118Z,23.24
2023-03-16T11:24:23.030Z,24.27
2023-03-16T11:26:55.767Z,24.15
2023-03-16T11:29:51.371Z,25.09
2023-03-16T11:32:29.774Z,23.41
2023-03-16T11:34:56.762Z,22.46
2023-03-16T11:37:42.609Z,23.19
2023-03-16T11:40:15.395Z,22.86
2023-03-16T11:43:10.851Z,23.32
2023-03-16T11:45:49.737Z,24.10
2023-03-16T11:48:29.592Z,25.53
2023-03-16T11:51:05.102Z,26.41
2023-03-16T11:54:03.208Z,27.34
2023-03-16T11:56:51.126Z,28.32
2023-03-16T11:59:36.989Z,28.98
2023-03-16T12:02:10.791Z,26.41
2023-03-16T12:05:13.510Z,23.54
2023-03-16T12:07:52.012Z,20.00
2023-03-16T12:10:26.581Z,16.67
2023-03-16T12:13:04.873Z,16.55
2023-03-16T12:15:42.547Z,16.40
2023-03-16T12:18:21.116Z,16.99
2023-03-16T12:21:04.199Z,15.49
2023-03-16T12:23:39.644Z,13.82
2023-03-16T12:26:07.190Z,14.91
2023-03-16T12:28:34.338Z,15.61
2023-03-16T12:31:36.647Z,16.32
2023-03-16T12:34:32.732Z,17.58
2023-03-16T12:37:23.544Z,17.92
2023-03-16T12:40:10.567Z,20.26
2023-03-16T12:42:57.167Z,22.70
2023-03-16T12:45:33.736Z,23.79
2023-03-16T12:48:08.000Z,24.83
2023-03-16T12:50:35.799Z,25.36
2023-03-16T12:53:08.378Z,27.03
2023-03-16T12:55:38.059Z,26.86
2023-03-16T12:58:07.618Z,27.25
2023-03-16T13:00:42.848Z,28.46
2023-03-16T13:03:21.299Z,30.18
2023-03-16T13:05:55.639Z,30.48
2023-03-16T13:08:23.575Z,30.44
2023-03-16T13:11:02.421Z,30.62
2023-03-16T13:13:29.477Z,31.52
2023-03-16T13:16:24.712Z,32.38
2023-03-16T13:18:53.396Z,33.33
2023-03-16T13:21:40.961Z,34.08
2023-03-16T13:24:29.463Z,33.71
2023-03-16T13:27:06.640Z,33.29
2023-03-16T13:29:33.969Z,32.82
2023-03-16T13:32:13.775Z,32.54
2023-03-16T13:34:49.183Z,33.87
2023-03-16T13:37:21.039Z,34.22
2023-03-16T13:40:00.470Z,34.43
2023-03-16T13:42:32.675Z,33.92
2023-03-16T13:45:12.098Z,34.23
2023-03-16T13:47:42.983Z,34.32
2023-03-16T13:50:14.589Z,33.38
2023-03-16T13:52:46.255Z,33.84
2023-03-16T13:55:27.512Z,33.61
2023-03-16T13:57:54.317Z,33.92
2023-03-16T14:00:27.812Z,33.58
2023-03-16T14:02:59.009Z,33.75
2023-03-16T14:05:35.450Z,32.88
2023-03-16T14:08:04.961Z,33.47
2023-03-16T14:10:35.246Z,32.96
2023-03-16T14:13:32.451Z,32.66
2023-03-16T14:16:01.400Z,32.79
2023-03-16T14:18:43.444Z,33.51
2023-03-16T14:21:16.634Z,33.44
2023-03-16T14:23:45.958Z,33.90
2023-03-16T14:26:16.556Z,34.15
2023-03-16T14:28:57.535Z,34.27
2023-03-16T14:31:38.432Z,33.85
2023-03-16T14:34:29.346Z,33.52
2023-03-16T14:37:14.907Z,33.85
2023-03-16T14:39:42.155Z,33.88
2023-03-16T14:42:31.338Z,33.85
2023-03-16T14:45:02.308Z,34.13
2023-03-16T14:47:31.099Z,33.85
2023-03-16T14:50:03.382Z,34.34
2023-03-16T14:52:33.996Z,34.43
2023-03-16T14:55:09.929Z,34.45
2023-03-16T14:57:39.388Z,33.45
2023-03-16T15:00:10.163Z,32.71
2023-03-16T15:02:37.113Z,33.03
2023-03-16T15:05:05.682Z,32.30
2023-03-16T15:07:41.150Z,33.30
2023-03-16T15:10:26.090Z,33.43
2023-03-16T15:13:04.252Z,33.92
2023-03-16T15:15:31.747Z,34.20
2023-03-16T15:17:59.862Z,34.06
2023-03-16T15:20:35.358Z,33.66
2023-03-16T15:23:04.904Z,33.55
2023-03-16T15:25:41.357Z,33.88
2023-03-16T15:28:16.908Z,33.04
2023-03-16T15:30:45.283Z,33.44
2023-03-16T15:33:15.117Z,34.58
2023-03-16T15:35:43.100Z,34.66
2023-03-16T15:38:28.463Z,34.99
2023-03-16T15:40:55.865Z,35.51
2023-03-16T15:43:24.714Z,35.39
2023-03-16T15:45:52.385Z,34.55
2023-03-16T15:48:24.671Z,34.23
2023-03-16T15:51:01.855Z,33.23
2023-03-16T15:53:45.617Z,33.33
2023-03-16T15:56:19.389Z,33.50
2023-03-16T15:58:47.350Z,33.62
2023-03-16T16:01:25.734Z,32.75
2023-03-16T16:03:54.013Z,32.70
2023-03-16T16:06:22.271Z,32.48
2023-03-16T16:08:49.028Z,33.08
2023-03-16T16:11:19.353Z,32.96
2023-03-16T16:13:46.781Z,32.83
2023-03-16T16:16:17.790Z,33.38
2023-03-16T16:18:46.616Z,33.44
2023-03-16T16:21:23.367Z,33.29
2023-03-16T16:23:50.922Z,33.57
2023-03-16T16:26:34.377Z,33.52
2023-03-16T16:29:13.870Z,33.74
2023-03-16T16:31:40.938Z,33.50
2023-03-16T16:34:21.115Z,33.66
2023-03-16T16:36:49.327Z,34.02
2023-03-16T16:39:17.566Z,33.69
2023-03-16T16:41:44.544Z,34.48
2023-03-16T16:44:23.666Z,33.85
2023-03-16T16:46:52.314Z,34.41
2023-03-16T16:49:28.339Z,33.93
2023-03-16T16:51:55.391Z,34.11
2023-03-16T16:54:28.660Z,34.36
2023-03-16T16:56:59.406Z,34.25
2023-03-16T16:59:30.388Z,34.68
2023-03-16T17:02:01.888Z,34.72
2023-03-16T17:04:29.487Z,34.41
2023-03-16T17:07:00.943Z,34.73
2023-03-16T17:09:29.135Z,34.58
2023-03-16T17:11:59.042Z,34.94
2023-03-16T17:14:28.455Z,35.19
2023-03-16T17:16:56.172Z,34.96
2023-03-16T17:19:28.134Z,35.36
2023-03-16T17:21:58.460Z,35.14
2023-03-16T17:24:25.760Z,35.63
2023-03-16T17:26:57.550Z,35.65
2023-03-16T17:29:26.740Z,36.54
2023-03-16T17:31:53.890Z,36.53
2023-03-16T17:34:24.741Z,36.32
2023-03-16T17:36:54.905Z,36.56
2023-03-16T17:39:24.760Z,36.96
2023-03-16T17:41:58.519Z,36.42
2023-03-16T17:44:31.866Z,36.71
2023-03-16T17:46:59.939Z,36.80
2023-03-16T17:49:28.606Z,37.83
2023-03-16T17:51:56.715Z,38.00
2023-03-16T17:54:25.844Z,38.33
2023-03-16T17:56:54.098Z,38.11
2023-03-16T17:59:24.901Z,38.63
2023-03-16T18:01:52.557Z,39.49
2023-03-16T18:04:22.743Z,39.56
2023-03-16T18:06:52.392Z,39.04
2023-03-16T18:09:21.146Z,39.67
2023-03-16T18:11:50.979Z,39.39
2023-03-16T18:14:35.348Z,39.21
2023-03-16T18:17:36.123Z,39.79
2023-03-16T18:20:03.362Z,39.87
2023-03-16T18:22:30.327Z,39.94
2023-03-16T18:25:02.297Z,40.11
2023-03-16T18:27:29.008Z,40.36
2023-03-16T18:29:55.751Z,40.11
2023-03-16T18:32:25.639Z,40.35
2023-03-16T18:34:53.372Z,40.25
2023-03-16T18:37:23.774Z,40.36
2023-03-16T18:39:52.197Z,41.19
2023-03-16T18:42:21.093Z,41.12
2023-03-16T18:44:48.929Z,41.26
2023-03-16T18:47:22.934Z,40.79
2023-03-16T18:49:54.093Z,41.64
2023-03-16T18:52:24.057Z,41.75
2023-03-16T18:54:53.068Z,41.55
2023-03-16T18:57:23.149Z,41.97
2023-03-16T18:59:51.041Z,41.90
2023-03-16T19:02:28.983Z,41.73
2023-03-16T19:04:59.612Z,41.94
2023-03-16T19:07:35.437Z,41.90
2023-03-16T19:10:08.742Z,42.19
2023-03-16T19:12:38.815Z,42.60
2023-03-16T19:15:28.264Z,42.50
2023-03-16T19:17:55.336Z,42.12
2023-03-16T19:20:31.637Z,42.66
2023-03-16T19:23:07.491Z,42.06
2023-03-16T19:25:39.964Z,42.02
2023-03-16T19:28:13.886Z,42.15
2023-03-16T19:30:41.440Z,42.97
2023-03-16T19:33:30.520Z,42.94
2023-03-16T19:35:58.001Z,42.73
2023-03-16T19:38:25.875Z,43.21
2023-03-16T19:41:00.792Z,42.89
2023-03-16T19:43:28.680Z,42.72
2023-03-16T19:45:56.628Z,42.89
2023-03-16T19:48:33.073Z,43.49
2023-03-16T19:51:01.204Z,43.35
2023-03-16T19:53:27.913Z,43.45
2023-03-16T19:55:54.859Z,43.64
2023-03-16T19:58:36.006Z,43.56
2023-03-16T20:01:03.173Z,43.78
2023-03-16T20:03:34.602Z,43.50
2023-03-16T20:06:01.479Z,43.80
2023-03-16T20:08:29.833Z,43.87
2023-03-16T20:11:02.254Z,43.49
2023-03-16T20:13:31.021Z,44.17
2023-03-16T20:16:00.362Z,43.99
2023-03-16T20:18:29.345Z,43.92
2023-03-16T20:20:56.375Z,44.65
2023-03-16T20:23:32.780Z,44.45
2023-03-16T20:26:02.672Z,44.27
2023-03-16T20:28:38.729Z,44.53
2023-03-16T20:31:08.863Z,44.29
2023-03-16T20:33:35.558Z,44.26
2023-03-16T20:36:02.589Z,44.84
2023-03-16T20:38:32.430Z,44.45
2023-03-16T20:40:59.719Z,44.12
2023-03-16T20:43:35.168Z,44.37
2023-03-16T20:46:04.110Z,44.03
2023-03-16T20:48:32.229Z,44.43
2023-03-16T20:51:00.728Z,44.80
2023-03-16T20:53:27.732Z,44.22
2023-03-16T20:55:58.586Z,44.79
2023-03-16T20:58:30.514Z,44.69
2023-03-16T21:01:03.571Z,44.23
2023-03-16T21:03:33.446Z,44.86
2023-03-16T21:06:02.112Z,45.10
2023-03-16T21:08:29.068Z,44.77
2023-03-16T21:10:57.240Z,44.61
2023-03-16T21:13:40.565Z,44.71
2023-03-16T21:16:11.157Z,44.48
2023-03-16T21:18:40.609Z,44.77
2023-03-16T21:21:16.567Z,44.12
2023-03-16T21:23:44.276Z,44.71
2023-03-16T21:26:28.887Z,44.65
2023-03-16T21:29:02.071Z,44.54
2023-03-16T21:31:29.186Z,44.31
2023-03-16T21:33:56.334Z,44.51
2023-03-16T21:36:26.639Z,44.63
2023-03-16T21:38:54.511Z,44.37
2023-03-16T21:41:21.692Z,44.54
2023-03-16T21:43:50.006Z,44.65
2023-03-16T21:46:25.770Z,44.31
2023-03-16T21:48:55.255Z,44.30
2023-03-16T21:51:29.195Z,43.74
2023-03-16T21:53:58.285Z,44.24
2023-03-16T21:56:26.385Z,44.07
2023-03-16T21:58:54.037Z,43.97
2023-03-16T22:01:26.002Z,43.84
2023-03-16T22:03:57.534Z,43.70
2023-03-16T22:06:27.988Z,43.98
2023-03-16T22:08:55.589Z,43.64
2023-03-16T22:11:31.368Z,44.00
2023-03-16T22:13:59.685Z,44.29
2023-03-16T22:16:31.441Z,44.29
2023-03-16T22:18:58.693Z,43.64
2023-03-16T22:21:28.652Z,44.48
2023-03-16T22:23:59.827Z,44.46
2023-03-16T22:26:28.639Z,44.33
2023-03-16T22:28:56.451Z,44.88
2023-03-16T22:31:33.701Z,44.35
2023-03-16T22:34:02.628Z,44.65
2023-03-16T22:36:35.551Z,44.18
2023-03-16T22:39:08.154Z,43.84
2023-03-16T22:41:35.811Z,43.81
2023-03-16T22:44:03.073Z,43.87
2023-03-16T22:46:31.113Z,44.13
2023-03-16T22:48:58.285Z,43.81
2023-03-16T22:51:34.501Z,43.89
2023-03-16T22:54:11.620Z,43.40
2023-03-16T22:56:40.807Z,43.70
2023-03-16T22:59:13.746Z,44.51
2023-03-16T23:01:43.746Z,44.48
2023-03-16T23:04:21.376Z,44.75
2023-03-16T23:06:57.884Z,44.77
2023-03-16T23:09:30.629Z,44.67
2023-03-16T23:11:59.494Z,44.47
2023-03-16T23:14:30.638Z,44.85
2023-03-16T23:16:57.410Z,44.96
2023-03-16T23:19:29.962Z,45.06
2023-03-16T23:22:06.426Z,44.89
2023-03-16T23:24:34.747Z,44.98
2023-03-16T23:27:02.329Z,44.73
2023-03-16T23:29:30.795Z,44.90
2023-03-16T23:31:58.326Z,45.20
2023-03-16T23:34:29.059Z,44.85
2023-03-16T23:36:59.342Z,45.11
2023-03-16T23:39:28.652Z,44.60
2023-03-16T23:42:05.380Z,44.85
2023-03-16T23:44:35.454Z,44.83
2023-03-16T23:47:02.728Z,44.65
2023-03-16T23:49:33.058Z,44.09
2023-03-16T23:52:01.802Z,44.65
2023-03-16T23:54:32.559Z,44.07
2023-03-16T23:57:00.550Z,44.14
2023-03-16T23:59:27.978Z,44.20
